sensor_id;sensor_type;location;lat;lon;timestamp;P1;durP1;ratioP1;P2;durP2;ratioP2
12878;SDS011;20617;49.476;10.986;2023-04-15T00:00:02;7.78;;;5.40;;
12878;SDS011;20617;49.476;10.986;2023-04-15T00:02:13;6.55;;;5.22;;
12878;SDS011;20617;49.476;10.986;2023-04-15T00:04:19;6.75;;;5.03;;
12878;SDS011;20617;49.476;10.986;2023-04-15T00:06:24;7.03;;;6.22;;
12878;SDS011;20617;49.476;10.986;2023-04-15T00:08:29;7.57;;;5.70;;
12878;SDS011;20617;49.476;10.986;2023-04-15T00:12:42;7.32;;;5.03;;
12878;SDS011;20617;49.476;10.986;2023-04-15T00:14:47;6.18;;;4.47;;
12878;SDS011;20617;49.476;10.986;2023-04-15T00:16:52;7.60;;;4.95;;
12878;SDS011;20617;49.476;10.986;2023-04-15T00:18:58;5.40;;;4.57;;
12878;SDS011;20617;49.476;10.986;2023-04-15T00:21:03;5.30;;;4.22;;
12878;SDS011;20617;49.476;10.986;2023-04-15T00:23:09;5.63;;;4.40;;
12878;SDS011;20617;49.476;10.986;2023-04-15T00:25:14;6.90;;;4.35;;
12878;SDS011;20617;49.476;10.986;2023-04-15T00:27:19;6.15;;;4.30;;
12878;SDS011;20617;49.476;10.986;2023-04-15T00:29:27;6.10;;;4.60;;
12878;SDS011;20617;49.476;10.986;2023-04-15T00:31:32;4.45;;;3.80;;
12878;SDS011;20617;49.476;10.986;2023-04-15T00:33:37;4.07;;;3.30;;
12878;SDS011;20617;49.476;10.986;2023-04-15T00:35:45;6.82;;;4.85;;
12878;SDS011;20617;49.476;10.986;2023-04-15T00:37:51;6.80;;;4.38;;
12878;SDS011;20617;49.476;10.986;2023-04-15T00:39:56;6.10;;;4.15;;
12878;SDS011;20617;49.476;10.986;2023-04-15T00:42:01;6.18;;;3.92;;
12878;SDS011;20617;49.476;10.986;2023-04-15T00:44:07;4.50;;;4.05;;
12878;SDS011;20617;49.476;10.986;2023-04-15T00:46:15;4.72;;;4.22;;
12878;SDS011;20617;49.476;10.986;2023-04-15T00:48:22;5.15;;;4.20;;
12878;SDS011;20617;49.476;10.986;2023-04-15T00:50:28;4.68;;;3.85;;
12878;SDS011;20617;49.476;10.986;2023-04-15T00:52:33;4.57;;;3.85;;
12878;SDS011;20617;49.476;10.986;2023-04-15T00:56:43;4.75;;;3.90;;
12878;SDS011;20617;49.476;10.986;2023-04-15T00:58:48;4.72;;;4.00;;
12878;SDS011;20617;49.476;10.986;2023-04-15T01:00:54;5.30;;;4.63;;
12878;SDS011;20617;49.476;10.986;2023-04-15T01:03:02;8.73;;;5.53;;
12878;SDS011;20617;49.476;10.986;2023-04-15T01:05:07;8.82;;;4.80;;
12878;SDS011;20617;49.476;10.986;2023-04-15T01:07:13;5.43;;;4.10;;
12878;SDS011;20617;49.476;10.986;2023-04-15T01:09:18;5.28;;;4.30;;
12878;SDS011;20617;49.476;10.986;2023-04-15T01:11:24;5.63;;;4.72;;
12878;SDS011;20617;49.476;10.986;2023-04-15T01:13:30;5.75;;;4.65;;
12878;SDS011;20617;49.476;10.986;2023-04-15T01:15:38;8.23;;;5.38;;
12878;SDS011;20617;49.476;10.986;2023-04-15T01:17:43;7.00;;;5.05;;
12878;SDS011;20617;49.476;10.986;2023-04-15T01:19:51;6.25;;;4.65;;
12878;SDS011;20617;49.476;10.986;2023-04-15T01:21:56;6.80;;;4.60;;
12878;SDS011;20617;49.476;10.986;2023-04-15T01:24:02;7.65;;;4.68;;
12878;SDS011;20617;49.476;10.986;2023-04-15T01:26:14;7.07;;;5.05;;
12878;SDS011;20617;49.476;10.986;2023-04-15T01:28:20;7.03;;;4.75;;
12878;SDS011;20617;49.476;10.986;2023-04-15T01:30:26;6.68;;;4.60;;
12878;SDS011;20617;49.476;10.986;2023-04-15T01:32:31;6.32;;;4.60;;
12878;SDS011;20617;49.476;10.986;2023-04-15T01:36:41;6.32;;;5.55;;
12878;SDS011;20617;49.476;10.986;2023-04-15T01:38:46;7.90;;;4.80;;
12878;SDS011;20617;49.476;10.986;2023-04-15T01:40:51;9.75;;;4.78;;
12878;SDS011;20617;49.476;10.986;2023-04-15T01:43:01;7.05;;;4.82;;
12878;SDS011;20617;49.476;10.986;2023-04-15T01:45:06;6.22;;;4.63;;
12878;SDS011;20617;49.476;10.986;2023-04-15T01:47:13;6.85;;;4.85;;
12878;SDS011;20617;49.476;10.986;2023-04-15T01:49:18;7.57;;;4.57;;
12878;SDS011;20617;49.476;10.986;2023-04-15T01:51:23;8.50;;;5.50;;
12878;SDS011;20617;49.476;10.986;2023-04-15T01:53:28;6.65;;;5.20;;
12878;SDS011;20617;49.476;10.986;2023-04-15T01:55:33;5.43;;;4.30;;
12878;SDS011;20617;49.476;10.986;2023-04-15T01:57:38;6.43;;;4.20;;
12878;SDS011;20617;49.476;10.986;2023-04-15T02:01:50;6.68;;;4.50;;
12878;SDS011;20617;49.476;10.986;2023-04-15T02:06:00;5.90;;;4.75;;
12878;SDS011;20617;49.476;10.986;2023-04-15T02:08:05;5.97;;;4.47;;
12878;SDS011;20617;49.476;10.986;2023-04-15T02:10:12;6.20;;;4.93;;
12878;SDS011;20617;49.476;10.986;2023-04-15T02:12:17;6.25;;;5.07;;
12878;SDS011;20617;49.476;10.986;2023-04-15T02:14:23;6.75;;;5.03;;
12878;SDS011;20617;49.476;10.986;2023-04-15T02:16:30;8.18;;;5.38;;
12878;SDS011;20617;49.476;10.986;2023-04-15T02:18:36;5.97;;;4.88;;
12878;SDS011;20617;49.476;10.986;2023-04-15T02:20:43;7.32;;;5.07;;
12878;SDS011;20617;49.476;10.986;2023-04-15T02:24:53;8.13;;;5.05;;
12878;SDS011;20617;49.476;10.986;2023-04-15T02:26:58;6.32;;;5.00;;
12878;SDS011;20617;49.476;10.986;2023-04-15T02:29:04;7.82;;;5.13;;
12878;SDS011;20617;49.476;10.986;2023-04-15T02:31:09;6.18;;;4.30;;
12878;SDS011;20617;49.476;10.986;2023-04-15T02:33:16;4.85;;;4.35;;
12878;SDS011;20617;49.476;10.986;2023-04-15T02:35:21;7.85;;;4.90;;
12878;SDS011;20617;49.476;10.986;2023-04-15T02:39:33;6.35;;;4.80;;
12878;SDS011;20617;49.476;10.986;2023-04-15T02:41:38;6.30;;;4.38;;
12878;SDS011;20617;49.476;10.986;2023-04-15T02:43:45;8.73;;;4.72;;
12878;SDS011;20617;49.476;10.986;2023-04-15T02:45:51;7.03;;;4.57;;
12878;SDS011;20617;49.476;10.986;2023-04-15T02:47:56;5.90;;;4.50;;
12878;SDS011;20617;49.476;10.986;2023-04-15T02:50:07;6.05;;;4.25;;
12878;SDS011;20617;49.476;10.986;2023-04-15T02:52:16;5.78;;;4.30;;
12878;SDS011;20617;49.476;10.986;2023-04-15T02:54:21;5.43;;;4.57;;
12878;SDS011;20617;49.476;10.986;2023-04-15T02:56:26;5.07;;;4.30;;
12878;SDS011;20617;49.476;10.986;2023-04-15T02:58:32;5.50;;;4.65;;
12878;SDS011;20617;49.476;10.986;2023-04-15T03:00:37;5.28;;;4.55;;
12878;SDS011;20617;49.476;10.986;2023-04-15T03:02:42;7.22;;;4.00;;
12878;SDS011;20617;49.476;10.986;2023-04-15T03:04:53;6.00;;;4.80;;
12878;SDS011;20617;49.476;10.986;2023-04-15T03:07:01;8.52;;;4.80;;
12878;SDS011;20617;49.476;10.986;2023-04-15T03:09:07;6.32;;;4.72;;
12878;SDS011;20617;49.476;10.986;2023-04-15T03:11:13;5.00;;;4.32;;
12878;SDS011;20617;49.476;10.986;2023-04-15T03:13:19;7.80;;;4.78;;
12878;SDS011;20617;49.476;10.986;2023-04-15T03:15:25;5.72;;;4.57;;
12878;SDS011;20617;49.476;10.986;2023-04-15T03:19:36;7.57;;;5.00;;
12878;SDS011;20617;49.476;10.986;2023-04-15T03:21:42;7.30;;;5.60;;
12878;SDS011;20617;49.476;10.986;2023-04-15T03:23:50;7.68;;;5.43;;
12878;SDS011;20617;49.476;10.986;2023-04-15T03:25:55;5.95;;;5.05;;
12878;SDS011;20617;49.476;10.986;2023-04-15T03:28:02;6.45;;;5.35;;
12878;SDS011;20617;49.476;10.986;2023-04-15T03:30:07;5.40;;;4.82;;
12878;SDS011;20617;49.476;10.986;2023-04-15T03:32:14;5.90;;;5.13;;
12878;SDS011;20617;49.476;10.986;2023-04-15T03:34:19;7.25;;;5.40;;
12878;SDS011;20617;49.476;10.986;2023-04-15T03:36:24;5.60;;;4.68;;
12878;SDS011;20617;49.476;10.986;2023-04-15T03:38:29;8.48;;;5.63;;
12878;SDS011;20617;49.476;10.986;2023-04-15T03:40:37;9.73;;;5.30;;
12878;SDS011;20617;49.476;10.986;2023-04-15T03:42:42;7.18;;;5.60;;
12878;SDS011;20617;49.476;10.986;2023-04-15T03:44:47;7.07;;;5.65;;
12878;SDS011;20617;49.476;10.986;2023-04-15T03:46:52;7.32;;;5.18;;
12878;SDS011;20617;49.476;10.986;2023-04-15T03:51:02;9.68;;;6.53;;
12878;SDS011;20617;49.476;10.986;2023-04-15T03:53:07;6.40;;;5.28;;
12878;SDS011;20617;49.476;10.986;2023-04-15T03:55:12;6.95;;;5.90;;
12878;SDS011;20617;49.476;10.986;2023-04-15T03:59:25;5.95;;;5.13;;
12878;SDS011;20617;49.476;10.986;2023-04-15T04:01:30;8.65;;;5.50;;
12878;SDS011;20617;49.476;10.986;2023-04-15T04:03:35;7.88;;;5.55;;
12878;SDS011;20617;49.476;10.986;2023-04-15T04:05:40;7.63;;;5.28;;
12878;SDS011;20617;49.476;10.986;2023-04-15T04:07:45;7.63;;;5.55;;
12878;SDS011;20617;49.476;10.986;2023-04-15T04:09:50;6.50;;;5.05;;
12878;SDS011;20617;49.476;10.986;2023-04-15T04:11:55;7.15;;;5.40;;
12878;SDS011;20617;49.476;10.986;2023-04-15T04:14:03;8.32;;;6.10;;
12878;SDS011;20617;49.476;10.986;2023-04-15T04:16:08;7.78;;;5.80;;
12878;SDS011;20617;49.476;10.986;2023-04-15T04:18:13;8.38;;;5.50;;
12878;SDS011;20617;49.476;10.986;2023-04-15T04:20:18;7.43;;;5.90;;
12878;SDS011;20617;49.476;10.986;2023-04-15T04:22:22;6.32;;;5.18;;
12878;SDS011;20617;49.476;10.986;2023-04-15T04:24:28;7.63;;;5.63;;
12878;SDS011;20617;49.476;10.986;2023-04-15T04:26:32;8.10;;;5.80;;
12878;SDS011;20617;49.476;10.986;2023-04-15T04:28:37;6.75;;;5.78;;
12878;SDS011;20617;49.476;10.986;2023-04-15T04:30:45;7.32;;;5.82;;
12878;SDS011;20617;49.476;10.986;2023-04-15T04:32:50;6.97;;;5.85;;
12878;SDS011;20617;49.476;10.986;2023-04-15T04:34:55;6.97;;;5.38;;
12878;SDS011;20617;49.476;10.986;2023-04-15T04:37:00;6.93;;;5.57;;
12878;SDS011;20617;49.476;10.986;2023-04-15T04:39:05;7.88;;;5.60;;
12878;SDS011;20617;49.476;10.986;2023-04-15T04:41:10;8.07;;;5.85;;
12878;SDS011;20617;49.476;10.986;2023-04-15T04:43:15;7.75;;;5.35;;
12878;SDS011;20617;49.476;10.986;2023-04-15T04:45:20;8.50;;;6.20;;
12878;SDS011;20617;49.476;10.986;2023-04-15T04:47:27;7.18;;;6.03;;
12878;SDS011;20617;49.476;10.986;2023-04-15T04:49:33;7.35;;;5.70;;
12878;SDS011;20617;49.476;10.986;2023-04-15T04:53:43;8.95;;;6.13;;
12878;SDS011;20617;49.476;10.986;2023-04-15T04:55:47;7.68;;;6.43;;
12878;SDS011;20617;49.476;10.986;2023-04-15T04:57:53;7.25;;;5.75;;
12878;SDS011;20617;49.476;10.986;2023-04-15T04:59:57;8.45;;;6.05;;
12878;SDS011;20617;49.476;10.986;2023-04-15T05:02:03;6.90;;;5.78;;
12878;SDS011;20617;49.476;10.986;2023-04-15T05:04:10;7.95;;;5.65;;
12878;SDS011;20617;49.476;10.986;2023-04-15T05:06:15;7.18;;;6.03;;
12878;SDS011;20617;49.476;10.986;2023-04-15T05:08:20;7.65;;;6.40;;
12878;SDS011;20617;49.476;10.986;2023-04-15T05:10:25;8.43;;;6.53;;
12878;SDS011;20617;49.476;10.986;2023-04-15T05:12:30;7.65;;;6.07;;
12878;SDS011;20617;49.476;10.986;2023-04-15T05:14:35;7.65;;;6.63;;
12878;SDS011;20617;49.476;10.986;2023-04-15T05:16:40;9.95;;;6.43;;
12878;SDS011;20617;49.476;10.986;2023-04-15T05:18:45;7.55;;;6.60;;
12878;SDS011;20617;49.476;10.986;2023-04-15T05:20:53;8.32;;;6.57;;
12878;SDS011;20617;49.476;10.986;2023-04-15T05:22:57;8.30;;;6.65;;
12878;SDS011;20617;49.476;10.986;2023-04-15T05:25:03;8.52;;;6.85;;
12878;SDS011;20617;49.476;10.986;2023-04-15T05:27:09;7.93;;;6.68;;
12878;SDS011;20617;49.476;10.986;2023-04-15T05:29:14;7.60;;;6.65;;
12878;SDS011;20617;49.476;10.986;2023-04-15T05:31:19;10.43;;;7.75;;
12878;SDS011;20617;49.476;10.986;2023-04-15T05:33:24;10.63;;;7.25;;
12878;SDS011;20617;49.476;10.986;2023-04-15T05:35:29;8.95;;;7.05;;
12878;SDS011;20617;49.476;10.986;2023-04-15T05:37:36;8.27;;;7.05;;
12878;SDS011;20617;49.476;10.986;2023-04-15T05:39:42;9.02;;;7.55;;
12878;SDS011;20617;49.476;10.986;2023-04-15T05:41:47;10.05;;;7.55;;
12878;SDS011;20617;49.476;10.986;2023-04-15T05:43:52;8.18;;;7.20;;
12878;SDS011;20617;49.476;10.986;2023-04-15T05:45:57;8.02;;;6.60;;
12878;SDS011;20617;49.476;10.986;2023-04-15T05:48:02;10.50;;;7.18;;
12878;SDS011;20617;49.476;10.986;2023-04-15T05:52:12;8.93;;;6.78;;
12878;SDS011;20617;49.476;10.986;2023-04-15T05:54:19;9.32;;;6.70;;
12878;SDS011;20617;49.476;10.986;2023-04-15T05:56:25;8.10;;;6.65;;
12878;SDS011;20617;49.476;10.986;2023-04-15T05:58:30;8.48;;;6.78;;
12878;SDS011;20617;49.476;10.986;2023-04-15T06:00:35;8.43;;;7.13;;
12878;SDS011;20617;49.476;10.986;2023-04-15T06:02:40;9.07;;;7.30;;
12878;SDS011;20617;49.476;10.986;2023-04-15T06:04:45;9.48;;;7.13;;
12878;SDS011;20617;49.476;10.986;2023-04-15T06:06:51;9.57;;;7.25;;
12878;SDS011;20617;49.476;10.986;2023-04-15T06:08:56;8.63;;;6.95;;
12878;SDS011;20617;49.476;10.986;2023-04-15T06:11:04;9.43;;;7.30;;
12878;SDS011;20617;49.476;10.986;2023-04-15T06:13:09;9.85;;;7.38;;
12878;SDS011;20617;49.476;10.986;2023-04-15T06:15:14;11.30;;;7.95;;
12878;SDS011;20617;49.476;10.986;2023-04-15T06:19:24;12.23;;;7.93;;
12878;SDS011;20617;49.476;10.986;2023-04-15T06:21:29;8.10;;;6.72;;
12878;SDS011;20617;49.476;10.986;2023-04-15T06:23:34;8.00;;;7.07;;
12878;SDS011;20617;49.476;10.986;2023-04-15T06:25:41;9.25;;;8.23;;
12878;SDS011;20617;49.476;10.986;2023-04-15T06:27:49;7.97;;;6.53;;
12878;SDS011;20617;49.476;10.986;2023-04-15T06:29:54;9.82;;;7.50;;
12878;SDS011;20617;49.476;10.986;2023-04-15T06:31:59;8.23;;;6.95;;
12878;SDS011;20617;49.476;10.986;2023-04-15T06:34:04;7.95;;;6.78;;
12878;SDS011;20617;49.476;10.986;2023-04-15T06:36:09;8.98;;;7.70;;
12878;SDS011;20617;49.476;10.986;2023-04-15T06:38:14;7.85;;;6.88;;
12878;SDS011;20617;49.476;10.986;2023-04-15T06:40:19;7.85;;;7.03;;
12878;SDS011;20617;49.476;10.986;2023-04-15T06:42:24;10.43;;;7.05;;
12878;SDS011;20617;49.476;10.986;2023-04-15T06:44:31;8.13;;;6.97;;
12878;SDS011;20617;49.476;10.986;2023-04-15T06:46:37;9.02;;;6.43;;
12878;SDS011;20617;49.476;10.986;2023-04-15T06:48:42;9.63;;;6.35;;
12878;SDS011;20617;49.476;10.986;2023-04-15T06:50:48;7.68;;;6.93;;
12878;SDS011;20617;49.476;10.986;2023-04-15T06:52:53;8.50;;;6.82;;
12878;SDS011;20617;49.476;10.986;2023-04-15T06:54:59;9.63;;;7.10;;
12878;SDS011;20617;49.476;10.986;2023-04-15T06:57:04;11.15;;;7.50;;
12878;SDS011;20617;49.476;10.986;2023-04-15T06:59:10;10.63;;;6.88;;
12878;SDS011;20617;49.476;10.986;2023-04-15T07:01:17;10.80;;;6.95;;
12878;SDS011;20617;49.476;10.986;2023-04-15T07:03:23;8.70;;;6.80;;
12878;SDS011;20617;49.476;10.986;2023-04-15T07:05:28;9.95;;;6.80;;
12878;SDS011;20617;49.476;10.986;2023-04-15T07:07:34;8.57;;;6.75;;
12878;SDS011;20617;49.476;10.986;2023-04-15T07:09:39;7.93;;;6.78;;
12878;SDS011;20617;49.476;10.986;2023-04-15T07:11:44;8.88;;;7.13;;
12878;SDS011;20617;49.476;10.986;2023-04-15T07:13:49;7.88;;;6.32;;
12878;SDS011;20617;49.476;10.986;2023-04-15T07:15:54;6.95;;;6.18;;
12878;SDS011;20617;49.476;10.986;2023-04-15T07:18:02;8.68;;;6.53;;
12878;SDS011;20617;49.476;10.986;2023-04-15T07:20:07;7.47;;;5.95;;
12878;SDS011;20617;49.476;10.986;2023-04-15T07:22:13;8.27;;;6.30;;
12878;SDS011;20617;49.476;10.986;2023-04-15T07:24:18;9.50;;;7.03;;
12878;SDS011;20617;49.476;10.986;2023-04-15T07:26:27;7.40;;;6.18;;
12878;SDS011;20617;49.476;10.986;2023-04-15T07:28:32;7.35;;;6.07;;
12878;SDS011;20617;49.476;10.986;2023-04-15T07:30:37;8.65;;;6.15;;
12878;SDS011;20617;49.476;10.986;2023-04-15T07:32:42;9.00;;;6.13;;
12878;SDS011;20617;49.476;10.986;2023-04-15T07:34:49;8.52;;;5.75;;
12878;SDS011;20617;49.476;10.986;2023-04-15T07:36:55;9.43;;;5.80;;
12878;SDS011;20617;49.476;10.986;2023-04-15T07:39:00;7.93;;;5.40;;
12878;SDS011;20617;49.476;10.986;2023-04-15T07:41:05;6.07;;;5.15;;
12878;SDS011;20617;49.476;10.986;2023-04-15T07:43:13;5.57;;;4.60;;
12878;SDS011;20617;49.476;10.986;2023-04-15T07:45:19;6.80;;;4.80;;
12878;SDS011;20617;49.476;10.986;2023-04-15T07:47:24;6.38;;;5.00;;
12878;SDS011;20617;49.476;10.986;2023-04-15T07:49:29;5.70;;;4.65;;
12878;SDS011;20617;49.476;10.986;2023-04-15T07:51:36;6.07;;;5.05;;
12878;SDS011;20617;49.476;10.986;2023-04-15T07:53:41;8.40;;;5.85;;
12878;SDS011;20617;49.476;10.986;2023-04-15T07:55:46;9.98;;;6.22;;
12878;SDS011;20617;49.476;10.986;2023-04-15T07:57:51;7.30;;;5.50;;
12878;SDS011;20617;49.476;10.986;2023-04-15T07:59:56;7.50;;;5.63;;
12878;SDS011;20617;49.476;10.986;2023-04-15T08:02:01;10.05;;;5.05;;
12878;SDS011;20617;49.476;10.986;2023-04-15T08:04:06;5.72;;;4.25;;
12878;SDS011;20617;49.476;10.986;2023-04-15T08:06:12;8.35;;;4.95;;
12878;SDS011;20617;49.476;10.986;2023-04-15T08:08:19;6.43;;;5.10;;
12878;SDS011;20617;49.476;10.986;2023-04-15T08:10:24;6.15;;;5.03;;
12878;SDS011;20617;49.476;10.986;2023-04-15T08:12:29;6.20;;;5.18;;
12878;SDS011;20617;49.476;10.986;2023-04-15T08:16:39;5.10;;;3.80;;
12878;SDS011;20617;49.476;10.986;2023-04-15T08:18:44;6.85;;;4.25;;
12878;SDS011;20617;49.476;10.986;2023-04-15T08:20:49;4.63;;;3.72;;
12878;SDS011;20617;49.476;10.986;2023-04-15T08:22:54;3.47;;;3.15;;
12878;SDS011;20617;49.476;10.986;2023-04-15T08:25:02;4.70;;;3.00;;
12878;SDS011;20617;49.476;10.986;2023-04-15T08:27:07;5.25;;;3.70;;
12878;SDS011;20617;49.476;10.986;2023-04-15T08:29:12;4.68;;;3.65;;
12878;SDS011;20617;49.476;10.986;2023-04-15T08:31:17;4.78;;;3.38;;
12878;SDS011;20617;49.476;10.986;2023-04-15T08:33:23;5.43;;;3.58;;
12878;SDS011;20617;49.476;10.986;2023-04-15T08:35:29;4.25;;;3.30;;
12878;SDS011;20617;49.476;10.986;2023-04-15T08:37:34;3.05;;;2.20;;
12878;SDS011;20617;49.476;10.986;2023-04-15T08:39:39;1.80;;;1.65;;
12878;SDS011;20617;49.476;10.986;2023-04-15T08:41:50;1.60;;;1.50;;
12878;SDS011;20617;49.476;10.986;2023-04-15T08:44:00;4.35;;;2.75;;
12878;SDS011;20617;49.476;10.986;2023-04-15T08:46:07;4.18;;;1.80;;
12878;SDS011;20617;49.476;10.986;2023-04-15T08:48:14;1.85;;;1.20;;
12878;SDS011;20617;49.476;10.986;2023-04-15T08:50:20;1.98;;;1.35;;
12878;SDS011;20617;49.476;10.986;2023-04-15T08:52:26;2.03;;;1.60;;
12878;SDS011;20617;49.476;10.986;2023-04-15T08:54:31;1.98;;;1.33;;
12878;SDS011;20617;49.476;10.986;2023-04-15T08:56:38;1.17;;;1.00;;
12878;SDS011;20617;49.476;10.986;2023-04-15T08:58:45;2.45;;;1.60;;
12878;SDS011;20617;49.476;10.986;2023-04-15T09:00:52;1.48;;;1.30;;
12878;SDS011;20617;49.476;10.986;2023-04-15T09:02:58;1.70;;;1.60;;
12878;SDS011;20617;49.476;10.986;2023-04-15T09:07:09;1.42;;;1.10;;
12878;SDS011;20617;49.476;10.986;2023-04-15T09:09:14;3.03;;;1.05;;
12878;SDS011;20617;49.476;10.986;2023-04-15T09:11:19;1.88;;;0.82;;
12878;SDS011;20617;49.476;10.986;2023-04-15T09:13:25;0.85;;;0.85;;
12878;SDS011;20617;49.476;10.986;2023-04-15T09:15:32;0.85;;;0.80;;
12878;SDS011;20617;49.476;10.986;2023-04-15T09:17:41;1.02;;;0.93;;
12878;SDS011;20617;49.476;10.986;2023-04-15T09:19:47;1.48;;;0.90;;
12878;SDS011;20617;49.476;10.986;2023-04-15T09:21:52;1.55;;;1.45;;
12878;SDS011;20617;49.476;10.986;2023-04-15T09:24:00;0.80;;;0.80;;
12878;SDS011;20617;49.476;10.986;2023-04-15T09:26:05;1.00;;;0.80;;
12878;SDS011;20617;49.476;10.986;2023-04-15T09:28:11;1.38;;;1.17;;
12878;SDS011;20617;49.476;10.986;2023-04-15T09:30:16;1.10;;;0.90;;
12878;SDS011;20617;49.476;10.986;2023-04-15T09:34:34;2.45;;;1.35;;
12878;SDS011;20617;49.476;10.986;2023-04-15T09:36:50;1.65;;;1.48;;
12878;SDS011;20617;49.476;10.986;2023-04-15T09:38:57;3.42;;;1.40;;
12878;SDS011;20617;49.476;10.986;2023-04-15T09:41:03;1.65;;;1.33;;
12878;SDS011;20617;49.476;10.986;2023-04-15T09:43:22;3.13;;;1.40;;
12878;SDS011;20617;49.476;10.986;2023-04-15T09:45:45;1.50;;;1.27;;
12878;SDS011;20617;49.476;10.986;2023-04-15T09:47:54;2.25;;;1.35;;
12878;SDS011;20617;49.476;10.986;2023-04-15T09:50:00;1.80;;;1.60;;
12878;SDS011;20617;49.476;10.986;2023-04-15T09:52:05;1.30;;;1.15;;
12878;SDS011;20617;49.476;10.986;2023-04-15T09:54:10;1.50;;;1.30;;
12878;SDS011;20617;49.476;10.986;2023-04-15T09:56:15;0.90;;;0.90;;
12878;SDS011;20617;49.476;10.986;2023-04-15T09:58:22;1.60;;;1.00;;
12878;SDS011;20617;49.476;10.986;2023-04-15T10:00:28;2.50;;;1.23;;
12878;SDS011;20617;49.476;10.986;2023-04-15T10:02:34;2.35;;;1.30;;
12878;SDS011;20617;49.476;10.986;2023-04-15T10:06:49;3.47;;;1.45;;
12878;SDS011;20617;49.476;10.986;2023-04-15T10:08:55;3.30;;;1.48;;
12878;SDS011;20617;49.476;10.986;2023-04-15T10:11:00;3.70;;;1.45;;
12878;SDS011;20617;49.476;10.986;2023-04-15T10:13:06;2.42;;;1.30;;
12878;SDS011;20617;49.476;10.986;2023-04-15T10:15:13;2.00;;;1.35;;
12878;SDS011;20617;49.476;10.986;2023-04-15T10:17:20;2.13;;;1.15;;
12878;SDS011;20617;49.476;10.986;2023-04-15T10:19:26;1.65;;;1.30;;
12878;SDS011;20617;49.476;10.986;2023-04-15T10:21:37;2.45;;;1.20;;
12878;SDS011;20617;49.476;10.986;2023-04-15T10:23:43;2.63;;;2.10;;
12878;SDS011;20617;49.476;10.986;2023-04-15T10:25:49;2.67;;;1.88;;
12878;SDS011;20617;49.476;10.986;2023-04-15T10:27:56;2.38;;;1.80;;
12878;SDS011;20617;49.476;10.986;2023-04-15T10:30:01;2.22;;;1.50;;
12878;SDS011;20617;49.476;10.986;2023-04-15T10:32:07;2.50;;;1.73;;
12878;SDS011;20617;49.476;10.986;2023-04-15T10:34:13;4.65;;;1.95;;
12878;SDS011;20617;49.476;10.986;2023-04-15T10:36:19;3.63;;;1.50;;
12878;SDS011;20617;49.476;10.986;2023-04-15T10:38:34;5.13;;;2.20;;
12878;SDS011;20617;49.476;10.986;2023-04-15T10:42:46;2.27;;;1.73;;
12878;SDS011;20617;49.476;10.986;2023-04-15T10:47:00;3.03;;;1.92;;
12878;SDS011;20617;49.476;10.986;2023-04-15T10:49:09;3.45;;;2.17;;
12878;SDS011;20617;49.476;10.986;2023-04-15T10:51:15;2.40;;;2.20;;
12878;SDS011;20617;49.476;10.986;2023-04-15T10:53:25;2.75;;;2.33;;
12878;SDS011;20617;49.476;10.986;2023-04-15T10:55:34;3.85;;;1.90;;
12878;SDS011;20617;49.476;10.986;2023-04-15T10:57:40;4.78;;;2.10;;
12878;SDS011;20617;49.476;10.986;2023-04-15T10:59:59;3.63;;;2.40;;
12878;SDS011;20617;49.476;10.986;2023-04-15T11:02:07;2.65;;;2.03;;
12878;SDS011;20617;49.476;10.986;2023-04-15T11:04:12;4.50;;;2.50;;
12878;SDS011;20617;49.476;10.986;2023-04-15T11:06:17;2.50;;;2.00;;
12878;SDS011;20617;49.476;10.986;2023-04-15T11:08:52;4.18;;;2.40;;
12878;SDS011;20617;49.476;10.986;2023-04-15T11:11:01;3.55;;;2.15;;
12878;SDS011;20617;49.476;10.986;2023-04-15T11:13:13;5.40;;;2.30;;
12878;SDS011;20617;49.476;10.986;2023-04-15T11:15:26;5.55;;;2.05;;
12878;SDS011;20617;49.476;10.986;2023-04-15T11:17:34;5.25;;;2.60;;
12878;SDS011;20617;49.476;10.986;2023-04-15T11:19:39;2.72;;;2.10;;
12878;SDS011;20617;49.476;10.986;2023-04-15T11:21:45;4.68;;;2.13;;
12878;SDS011;20617;49.476;10.986;2023-04-15T11:23:50;3.00;;;2.13;;
12878;SDS011;20617;49.476;10.986;2023-04-15T11:25:55;2.55;;;2.00;;
12878;SDS011;20617;49.476;10.986;2023-04-15T11:28:03;4.60;;;1.75;;
12878;SDS011;20617;49.476;10.986;2023-04-15T11:30:16;4.32;;;2.45;;
12878;SDS011;20617;49.476;10.986;2023-04-15T11:32:23;2.53;;;2.20;;
12878;SDS011;20617;49.476;10.986;2023-04-15T11:36:36;2.47;;;1.88;;
12878;SDS011;20617;49.476;10.986;2023-04-15T11:38:42;4.85;;;2.22;;
12878;SDS011;20617;49.476;10.986;2023-04-15T11:40:49;2.42;;;1.77;;
12878;SDS011;20617;49.476;10.986;2023-04-15T11:43:08;5.20;;;1.77;;
12878;SDS011;20617;49.476;10.986;2023-04-15T11:45:14;2.90;;;2.03;;
12878;SDS011;20617;49.476;10.986;2023-04-15T11:49:28;2.83;;;2.17;;
12878;SDS011;20617;49.476;10.986;2023-04-15T11:51:35;3.80;;;1.73;;
12878;SDS011;20617;49.476;10.986;2023-04-15T11:53:41;2.03;;;1.60;;
12878;SDS011;20617;49.476;10.986;2023-04-15T11:55:48;3.30;;;1.83;;
12878;SDS011;20617;49.476;10.986;2023-04-15T11:58:10;2.10;;;1.90;;
12878;SDS011;20617;49.476;10.986;2023-04-15T12:00:18;2.65;;;2.17;;
12878;SDS011;20617;49.476;10.986;2023-04-15T12:02:29;3.17;;;1.90;;
12878;SDS011;20617;49.476;10.986;2023-04-15T12:04:34;2.55;;;2.15;;
12878;SDS011;20617;49.476;10.986;2023-04-15T12:06:40;2.33;;;1.73;;
12878;SDS011;20617;49.476;10.986;2023-04-15T12:11:11;3.15;;;2.20;;
12878;SDS011;20617;49.476;10.986;2023-04-15T12:13:19;2.42;;;1.85;;
12878;SDS011;20617;49.476;10.986;2023-04-15T12:15:24;3.10;;;2.08;;
12878;SDS011;20617;49.476;10.986;2023-04-15T12:17:29;3.80;;;2.50;;
12878;SDS011;20617;49.476;10.986;2023-04-15T12:19:55;3.20;;;2.10;;
12878;SDS011;20617;49.476;10.986;2023-04-15T12:22:00;3.05;;;2.28;;
12878;SDS011;20617;49.476;10.986;2023-04-15T12:24:07;2.40;;;2.05;;
12878;SDS011;20617;49.476;10.986;2023-04-15T12:26:13;3.30;;;2.03;;
12878;SDS011;20617;49.476;10.986;2023-04-15T12:28:21;2.53;;;1.75;;
12878;SDS011;20617;49.476;10.986;2023-04-15T12:30:26;2.55;;;1.92;;
12878;SDS011;20617;49.476;10.986;2023-04-15T12:32:33;1.52;;;1.40;;
12878;SDS011;20617;49.476;10.986;2023-04-15T12:34:43;1.40;;;1.30;;
12878;SDS011;20617;49.476;10.986;2023-04-15T12:36:53;2.72;;;1.65;;
12878;SDS011;20617;49.476;10.986;2023-04-15T12:38:58;1.75;;;1.40;;
12878;SDS011;20617;49.476;10.986;2023-04-15T12:43:08;2.35;;;1.40;;
12878;SDS011;20617;49.476;10.986;2023-04-15T12:45:16;1.40;;;1.30;;
12878;SDS011;20617;49.476;10.986;2023-04-15T12:47:22;2.33;;;1.75;;
12878;SDS011;20617;49.476;10.986;2023-04-15T12:51:33;1.45;;;1.35;;
12878;SDS011;20617;49.476;10.986;2023-04-15T12:53:38;1.30;;;1.20;;
12878;SDS011;20617;49.476;10.986;2023-04-15T12:57:48;2.92;;;1.77;;
12878;SDS011;20617;49.476;10.986;2023-04-15T12:59:53;2.28;;;1.25;;
12878;SDS011;20617;49.476;10.986;2023-04-15T13:02:00;1.63;;;1.50;;
12878;SDS011;20617;49.476;10.986;2023-04-15T13:04:06;2.85;;;1.50;;
12878;SDS011;20617;49.476;10.986;2023-04-15T13:08:16;2.95;;;1.40;;
12878;SDS011;20617;49.476;10.986;2023-04-15T13:12:26;1.42;;;1.33;;
12878;SDS011;20617;49.476;10.986;2023-04-15T13:14:31;1.50;;;1.20;;
12878;SDS011;20617;49.476;10.986;2023-04-15T13:16:36;1.38;;;1.27;;
12878;SDS011;20617;49.476;10.986;2023-04-15T13:18:44;3.10;;;1.95;;
12878;SDS011;20617;49.476;10.986;2023-04-15T13:20:50;2.55;;;1.65;;
12878;SDS011;20617;49.476;10.986;2023-04-15T13:22:55;1.90;;;1.48;;
12878;SDS011;20617;49.476;10.986;2023-04-15T13:25:00;2.08;;;1.30;;